sensor_id;sensor_type;location;lat;lon;timestamp;P1;durP1;ratioP1;P2;durP2;ratioP2
42478;SDS011;28110;47.080;9.476;2023-09-19T00:00:57;1.80;;;0.80;;
42478;SDS011;28110;47.080;9.476;2023-09-19T00:03:23;3.72;;;1.00;;
42478;SDS011;28110;47.080;9.476;2023-09-19T00:05:49;2.40;;;0.80;;
42478;SDS011;28110;47.080;9.476;2023-09-19T00:08:15;1.65;;;0.85;;
42478;SDS011;28110;47.080;9.476;2023-09-19T00:10:41;4.25;;;1.02;;
42478;SDS011;28110;47.080;9.476;2023-09-19T00:13:08;1.70;;;0.90;;
42478;SDS011;28110;47.080;9.476;2023-09-19T00:15:39;3.90;;;1.08;;
42478;SDS011;28110;47.080;9.476;2023-09-19T00:18:06;2.08;;;1.23;;
42478;SDS011;28110;47.080;9.476;2023-09-19T00:20:35;1.23;;;0.88;;
42478;SDS011;28110;47.080;9.476;2023-09-19T00:23:01;2.58;;;0.90;;
42478;SDS011;28110;47.080;9.476;2023-09-19T00:25:34;1.80;;;0.70;;
42478;SDS011;28110;47.080;9.476;2023-09-19T00:28:01;1.48;;;0.77;;
42478;SDS011;28110;47.080;9.476;2023-09-19T00:30:26;1.85;;;0.80;;
42478;SDS011;28110;47.080;9.476;2023-09-19T00:32:52;2.87;;;0.80;;
42478;SDS011;28110;47.080;9.476;2023-09-19T00:35:18;4.32;;;0.95;;
42478;SDS011;28110;47.080;9.476;2023-09-19T00:37:49;2.38;;;1.10;;
42478;SDS011;28110;47.080;9.476;2023-09-19T00:40:14;2.78;;;1.05;;
42478;SDS011;28110;47.080;9.476;2023-09-19T00:42:41;1.02;;;0.82;;
42478;SDS011;28110;47.080;9.476;2023-09-19T00:45:11;6.13;;;1.10;;
42478;SDS011;28110;47.080;9.476;2023-09-19T00:47:44;4.97;;;1.08;;
42478;SDS011;28110;47.080;9.476;2023-09-19T00:50:13;1.67;;;0.70;;
42478;SDS011;28110;47.080;9.476;2023-09-19T00:52:42;1.58;;;0.90;;
42478;SDS011;28110;47.080;9.476;2023-09-19T00:55:09;2.22;;;0.90;;
42478;SDS011;28110;47.080;9.476;2023-09-19T00:57:36;4.00;;;1.00;;
42478;SDS011;28110;47.080;9.476;2023-09-19T01:00:06;1.40;;;1.30;;
42478;SDS011;28110;47.080;9.476;2023-09-19T01:02:33;1.20;;;1.00;;
42478;SDS011;28110;47.080;9.476;2023-09-19T01:04:59;3.28;;;0.90;;
42478;SDS011;28110;47.080;9.476;2023-09-19T01:07:26;4.57;;;1.00;;
42478;SDS011;28110;47.080;9.476;2023-09-19T01:09:55;2.63;;;0.88;;
42478;SDS011;28110;47.080;9.476;2023-09-19T01:12:28;1.67;;;0.90;;
42478;SDS011;28110;47.080;9.476;2023-09-19T01:15:20;2.37;;;0.87;;
42478;SDS011;28110;47.080;9.476;2023-09-19T01:17:57;2.53;;;0.95;;
42478;SDS011;28110;47.080;9.476;2023-09-19T01:26:30;2.72;;;1.00;;
42478;SDS011;28110;47.080;9.476;2023-09-19T01:31:54;2.03;;;0.70;;
42478;SDS011;28110;47.080;9.476;2023-09-19T01:34:26;3.83;;;0.80;;
42478;SDS011;28110;47.080;9.476;2023-09-19T01:36:52;2.13;;;1.03;;
42478;SDS011;28110;47.080;9.476;2023-09-19T01:39:17;2.38;;;0.85;;
42478;SDS011;28110;47.080;9.476;2023-09-19T01:47:34;2.25;;;0.85;;
42478;SDS011;28110;47.080;9.476;2023-09-19T01:52:51;2.17;;;0.90;;
42478;SDS011;28110;47.080;9.476;2023-09-19T01:55:22;3.08;;;0.98;;
42478;SDS011;28110;47.080;9.476;2023-09-19T01:57:54;2.03;;;1.20;;
42478;SDS011;28110;47.080;9.476;2023-09-19T02:00:37;4.28;;;1.33;;
42478;SDS011;28110;47.080;9.476;2023-09-19T02:03:06;3.22;;;1.10;;
42478;SDS011;28110;47.080;9.476;2023-09-19T02:05:33;2.53;;;1.40;;
42478;SDS011;28110;47.080;9.476;2023-09-19T02:07:59;3.07;;;1.30;;
42478;SDS011;28110;47.080;9.476;2023-09-19T02:10:25;2.58;;;1.50;;
42478;SDS011;28110;47.080;9.476;2023-09-19T02:12:51;3.50;;;1.38;;
42478;SDS011;28110;47.080;9.476;2023-09-19T02:15:17;4.87;;;1.27;;
42478;SDS011;28110;47.080;9.476;2023-09-19T02:17:42;2.80;;;1.30;;
42478;SDS011;28110;47.080;9.476;2023-09-19T02:20:09;3.03;;;1.30;;
42478;SDS011;28110;47.080;9.476;2023-09-19T02:22:36;2.38;;;1.38;;
42478;SDS011;28110;47.080;9.476;2023-09-19T02:25:02;3.08;;;1.45;;
42478;SDS011;28110;47.080;9.476;2023-09-19T02:27:29;2.80;;;1.15;;
42478;SDS011;28110;47.080;9.476;2023-09-19T02:29:55;4.88;;;1.38;;
42478;SDS011;28110;47.080;9.476;2023-09-19T02:32:21;3.20;;;1.23;;
42478;SDS011;28110;47.080;9.476;2023-09-19T02:34:48;3.38;;;1.30;;
42478;SDS011;28110;47.080;9.476;2023-09-19T02:37:13;5.75;;;1.52;;
42478;SDS011;28110;47.080;9.476;2023-09-19T02:39:41;2.55;;;1.50;;
42478;SDS011;28110;47.080;9.476;2023-09-19T02:42:07;4.32;;;1.45;;
42478;SDS011;28110;47.080;9.476;2023-09-19T02:44:32;2.70;;;1.50;;
42478;SDS011;28110;47.080;9.476;2023-09-19T02:46:58;3.60;;;1.40;;
42478;SDS011;28110;47.080;9.476;2023-09-19T02:49:24;5.32;;;1.40;;
42478;SDS011;28110;47.080;9.476;2023-09-19T02:51:50;3.27;;;1.77;;
42478;SDS011;28110;47.080;9.476;2023-09-19T02:54:16;3.63;;;1.40;;
42478;SDS011;28110;47.080;9.476;2023-09-19T02:56:42;2.90;;;1.47;;
42478;SDS011;28110;47.080;9.476;2023-09-19T02:59:08;4.63;;;2.28;;
42478;SDS011;28110;47.080;9.476;2023-09-19T03:01:35;4.85;;;2.20;;
42478;SDS011;28110;47.080;9.476;2023-09-19T03:04:02;3.22;;;1.80;;
42478;SDS011;28110;47.080;9.476;2023-09-19T03:06:28;2.17;;;1.23;;
42478;SDS011;28110;47.080;9.476;2023-09-19T03:08:55;3.33;;;1.77;;
42478;SDS011;28110;47.080;9.476;2023-09-19T03:11:21;4.30;;;1.97;;
42478;SDS011;28110;47.080;9.476;2023-09-19T03:13:51;9.98;;;4.18;;
42478;SDS011;28110;47.080;9.476;2023-09-19T03:16:17;8.73;;;5.38;;
42478;SDS011;28110;47.080;9.476;2023-09-19T03:18:46;7.65;;;5.38;;
42478;SDS011;28110;47.080;9.476;2023-09-19T03:21:13;9.30;;;7.22;;
42478;SDS011;28110;47.080;9.476;2023-09-19T03:23:40;5.90;;;4.50;;
42478;SDS011;28110;47.080;9.476;2023-09-19T03:26:05;7.20;;;5.13;;
42478;SDS011;28110;47.080;9.476;2023-09-19T03:28:32;8.33;;;4.70;;
42478;SDS011;28110;47.080;9.476;2023-09-19T03:30:59;4.47;;;3.53;;
42478;SDS011;28110;47.080;9.476;2023-09-19T03:33:28;4.93;;;4.13;;
42478;SDS011;28110;47.080;9.476;2023-09-19T03:35:56;8.02;;;3.78;;
42478;SDS011;28110;47.080;9.476;2023-09-19T03:38:24;4.72;;;3.38;;
42478;SDS011;28110;47.080;9.476;2023-09-19T03:40:50;6.18;;;3.65;;
42478;SDS011;28110;47.080;9.476;2023-09-19T03:43:15;9.98;;;4.10;;
42478;SDS011;28110;47.080;9.476;2023-09-19T03:45:41;7.00;;;4.73;;
42478;SDS011;28110;47.080;9.476;2023-09-19T03:48:10;8.98;;;5.13;;
42478;SDS011;28110;47.080;9.476;2023-09-19T03:50:36;6.40;;;5.50;;
42478;SDS011;28110;47.080;9.476;2023-09-19T03:53:02;6.33;;;5.67;;
42478;SDS011;28110;47.080;9.476;2023-09-19T03:55:28;6.03;;;4.65;;
42478;SDS011;28110;47.080;9.476;2023-09-19T03:57:54;5.53;;;4.18;;
42478;SDS011;28110;47.080;9.476;2023-09-19T04:00:20;6.97;;;4.07;;
42478;SDS011;28110;47.080;9.476;2023-09-19T04:02:48;7.10;;;3.17;;
42478;SDS011;28110;47.080;9.476;2023-09-19T04:05:14;6.35;;;3.20;;
42478;SDS011;28110;47.080;9.476;2023-09-19T04:07:39;6.27;;;3.50;;
42478;SDS011;28110;47.080;9.476;2023-09-19T04:10:05;7.07;;;4.70;;
42478;SDS011;28110;47.080;9.476;2023-09-19T04:12:34;10.20;;;5.47;;
42478;SDS011;28110;47.080;9.476;2023-09-19T04:14:59;11.13;;;6.70;;
42478;SDS011;28110;47.080;9.476;2023-09-19T04:17:25;10.98;;;6.85;;
42478;SDS011;28110;47.080;9.476;2023-09-19T04:19:50;7.70;;;4.93;;
42478;SDS011;28110;47.080;9.476;2023-09-19T04:22:16;7.18;;;5.40;;
42478;SDS011;28110;47.080;9.476;2023-09-19T04:24:42;7.17;;;5.47;;
42478;SDS011;28110;47.080;9.476;2023-09-19T04:27:08;12.82;;;7.57;;
42478;SDS011;28110;47.080;9.476;2023-09-19T04:29:34;10.00;;;7.28;;
42478;SDS011;28110;47.080;9.476;2023-09-19T04:32:00;10.13;;;6.65;;
42478;SDS011;28110;47.080;9.476;2023-09-19T04:34:29;12.10;;;6.50;;
42478;SDS011;28110;47.080;9.476;2023-09-19T04:36:55;12.40;;;7.20;;
42478;SDS011;28110;47.080;9.476;2023-09-19T04:39:23;12.43;;;7.30;;
42478;SDS011;28110;47.080;9.476;2023-09-19T04:41:50;15.32;;;8.07;;
42478;SDS011;28110;47.080;9.476;2023-09-19T04:44:17;13.75;;;8.73;;
42478;SDS011;28110;47.080;9.476;2023-09-19T04:46:43;13.63;;;9.20;;
42478;SDS011;28110;47.080;9.476;2023-09-19T04:49:09;12.93;;;9.30;;
42478;SDS011;28110;47.080;9.476;2023-09-19T04:51:35;10.73;;;8.95;;
42478;SDS011;28110;47.080;9.476;2023-09-19T04:54:01;12.60;;;9.43;;
42478;SDS011;28110;47.080;9.476;2023-09-19T04:56:27;11.23;;;8.75;;
42478;SDS011;28110;47.080;9.476;2023-09-19T04:58:57;12.85;;;9.07;;
42478;SDS011;28110;47.080;9.476;2023-09-19T05:01:23;12.50;;;6.97;;
42478;SDS011;28110;47.080;9.476;2023-09-19T05:03:49;7.65;;;4.97;;
42478;SDS011;28110;47.080;9.476;2023-09-19T05:06:19;4.15;;;2.85;;
42478;SDS011;28110;47.080;9.476;2023-09-19T05:08:50;4.25;;;2.78;;
42478;SDS011;28110;47.080;9.476;2023-09-19T05:11:17;5.53;;;3.03;;
42478;SDS011;28110;47.080;9.476;2023-09-19T05:13:43;5.25;;;3.17;;
42478;SDS011;28110;47.080;9.476;2023-09-19T05:16:09;4.40;;;3.47;;
42478;SDS011;28110;47.080;9.476;2023-09-19T05:18:35;5.82;;;4.22;;
42478;SDS011;28110;47.080;9.476;2023-09-19T05:21:02;5.68;;;4.20;;
42478;SDS011;28110;47.080;9.476;2023-09-19T05:23:28;7.93;;;3.73;;
42478;SDS011;28110;47.080;9.476;2023-09-19T05:25:53;4.60;;;4.05;;
42478;SDS011;28110;47.080;9.476;2023-09-19T05:28:19;7.07;;;3.78;;
42478;SDS011;28110;47.080;9.476;2023-09-19T05:30:45;5.50;;;2.97;;
42478;SDS011;28110;47.080;9.476;2023-09-19T05:33:12;7.45;;;3.38;;
42478;SDS011;28110;47.080;9.476;2023-09-19T05:35:38;5.70;;;3.80;;
42478;SDS011;28110;47.080;9.476;2023-09-19T05:38:04;5.85;;;3.55;;
42478;SDS011;28110;47.080;9.476;2023-09-19T05:40:33;6.05;;;3.83;;
42478;SDS011;28110;47.080;9.476;2023-09-19T05:43:00;4.53;;;3.05;;
42478;SDS011;28110;47.080;9.476;2023-09-19T05:45:25;2.23;;;1.70;;
42478;SDS011;28110;47.080;9.476;2023-09-19T05:47:52;2.05;;;1.67;;
42478;SDS011;28110;47.080;9.476;2023-09-19T05:50:26;3.83;;;1.33;;
42478;SDS011;28110;47.080;9.476;2023-09-19T05:52:52;5.70;;;1.00;;
42478;SDS011;28110;47.080;9.476;2023-09-19T05:55:19;2.47;;;1.20;;
42478;SDS011;28110;47.080;9.476;2023-09-19T05:57:49;2.42;;;1.10;;
42478;SDS011;28110;47.080;9.476;2023-09-19T06:00:16;1.73;;;1.23;;
42478;SDS011;28110;47.080;9.476;2023-09-19T06:02:43;2.00;;;1.10;;
42478;SDS011;28110;47.080;9.476;2023-09-19T06:05:09;3.33;;;1.10;;
42478;SDS011;28110;47.080;9.476;2023-09-19T06:07:36;3.97;;;1.33;;
42478;SDS011;28110;47.080;9.476;2023-09-19T06:10:05;5.03;;;1.10;;
42478;SDS011;28110;47.080;9.476;2023-09-19T06:12:32;2.75;;;1.35;;
42478;SDS011;28110;47.080;9.476;2023-09-19T06:15:02;3.25;;;1.40;;
42478;SDS011;28110;47.080;9.476;2023-09-19T06:17:28;3.28;;;1.55;;
42478;SDS011;28110;47.080;9.476;2023-09-19T06:19:56;2.40;;;1.33;;
42478;SDS011;28110;47.080;9.476;2023-09-19T06:22:21;4.63;;;1.33;;
42478;SDS011;28110;47.080;9.476;2023-09-19T06:24:49;6.03;;;1.20;;
42478;SDS011;28110;47.080;9.476;2023-09-19T06:27:14;1.42;;;0.90;;
42478;SDS011;28110;47.080;9.476;2023-09-19T06:29:40;1.35;;;0.70;;
42478;SDS011;28110;47.080;9.476;2023-09-19T06:32:07;1.98;;;1.00;;
42478;SDS011;28110;47.080;9.476;2023-09-19T06:34:33;2.73;;;1.20;;
42478;SDS011;28110;47.080;9.476;2023-09-19T06:36:59;1.40;;;0.60;;
42478;SDS011;28110;47.080;9.476;2023-09-19T06:39:25;3.73;;;0.70;;
42478;SDS011;28110;47.080;9.476;2023-09-19T06:41:51;1.20;;;0.85;;
42478;SDS011;28110;47.080;9.476;2023-09-19T06:44:18;2.50;;;0.80;;
42478;SDS011;28110;47.080;9.476;2023-09-19T06:46:46;2.75;;;0.93;;
42478;SDS011;28110;47.080;9.476;2023-09-19T06:49:16;2.20;;;0.97;;
42478;SDS011;28110;47.080;9.476;2023-09-19T06:51:42;1.40;;;0.90;;
42478;SDS011;28110;47.080;9.476;2023-09-19T06:54:08;3.85;;;1.27;;
42478;SDS011;28110;47.080;9.476;2023-09-19T06:56:34;2.13;;;1.20;;
42478;SDS011;28110;47.080;9.476;2023-09-19T06:59:00;3.97;;;1.40;;
42478;SDS011;28110;47.080;9.476;2023-09-19T07:01:27;6.28;;;1.45;;
42478;SDS011;28110;47.080;9.476;2023-09-19T07:03:52;2.80;;;1.27;;
42478;SDS011;28110;47.080;9.476;2023-09-19T07:06:18;3.97;;;1.48;;
42478;SDS011;28110;47.080;9.476;2023-09-19T07:08:44;5.60;;;1.73;;
42478;SDS011;28110;47.080;9.476;2023-09-19T07:11:10;7.20;;;1.58;;
42478;SDS011;28110;47.080;9.476;2023-09-19T07:13:37;2.55;;;1.40;;
42478;SDS011;28110;47.080;9.476;2023-09-19T07:16:03;6.63;;;1.50;;
42478;SDS011;28110;47.080;9.476;2023-09-19T07:18:29;3.70;;;1.70;;
42478;SDS011;28110;47.080;9.476;2023-09-19T07:20:57;5.90;;;2.10;;
42478;SDS011;28110;47.080;9.476;2023-09-19T07:23:29;3.33;;;2.30;;
42478;SDS011;28110;47.080;9.476;2023-09-19T07:25:59;6.13;;;2.10;;
42478;SDS011;28110;47.080;9.476;2023-09-19T07:28:30;3.40;;;2.17;;
42478;SDS011;28110;47.080;9.476;2023-09-19T07:30:55;4.20;;;2.30;;
42478;SDS011;28110;47.080;9.476;2023-09-19T07:33:21;3.47;;;2.08;;
42478;SDS011;28110;47.080;9.476;2023-09-19T07:35:47;3.03;;;2.17;;
42478;SDS011;28110;47.080;9.476;2023-09-19T07:38:13;5.55;;;1.98;;
42478;SDS011;28110;47.080;9.476;2023-09-19T07:40:39;6.40;;;1.70;;
42478;SDS011;28110;47.080;9.476;2023-09-19T07:43:04;4.35;;;1.60;;
42478;SDS011;28110;47.080;9.476;2023-09-19T07:45:31;4.03;;;1.50;;
42478;SDS011;28110;47.080;9.476;2023-09-19T07:47:57;3.42;;;1.15;;
42478;SDS011;28110;47.080;9.476;2023-09-19T07:50:25;5.32;;;1.10;;
42478;SDS011;28110;47.080;9.476;2023-09-19T07:52:51;2.67;;;0.93;;
42478;SDS011;28110;47.080;9.476;2023-09-19T07:55:18;2.35;;;0.90;;
42478;SDS011;28110;47.080;9.476;2023-09-19T07:57:48;4.23;;;0.93;;
42478;SDS011;28110;47.080;9.476;2023-09-19T08:00:14;2.35;;;1.10;;
42478;SDS011;28110;47.080;9.476;2023-09-19T08:02:40;3.47;;;1.30;;
42478;SDS011;28110;47.080;9.476;2023-09-19T08:05:10;6.32;;;1.58;;
42478;SDS011;28110;47.080;9.476;2023-09-19T08:07:37;3.67;;;1.65;;
42478;SDS011;28110;47.080;9.476;2023-09-19T08:10:04;6.20;;;1.52;;
42478;SDS011;28110;47.080;9.476;2023-09-19T08:12:32;7.57;;;2.03;;
42478;SDS011;28110;47.080;9.476;2023-09-19T08:15:00;4.18;;;1.52;;
42478;SDS011;28110;47.080;9.476;2023-09-19T08:17:26;4.82;;;1.60;;
42478;SDS011;28110;47.080;9.476;2023-09-19T08:19:52;3.20;;;1.87;;
42478;SDS011;28110;47.080;9.476;2023-09-19T08:22:18;3.33;;;1.67;;
42478;SDS011;28110;47.080;9.476;2023-09-19T08:24:44;3.17;;;1.70;;
42478;SDS011;28110;47.080;9.476;2023-09-19T08:27:11;2.25;;;1.50;;
42478;SDS011;28110;47.080;9.476;2023-09-19T08:29:37;5.85;;;1.58;;
42478;SDS011;28110;47.080;9.476;2023-09-19T08:32:03;3.83;;;1.40;;
42478;SDS011;28110;47.080;9.476;2023-09-19T08:34:29;3.93;;;1.70;;
42478;SDS011;28110;47.080;9.476;2023-09-19T08:36:59;4.60;;;1.52;;
42478;SDS011;28110;47.080;9.476;2023-09-19T08:39:25;3.43;;;1.13;;
42478;SDS011;28110;47.080;9.476;2023-09-19T08:42:00;4.05;;;1.40;;
42478;SDS011;28110;47.080;9.476;2023-09-19T08:44:27;4.60;;;1.40;;
42478;SDS011;28110;47.080;9.476;2023-09-19T08:46:55;4.95;;;1.40;;
42478;SDS011;28110;47.080;9.476;2023-09-19T08:52:13;2.10;;;1.50;;
42478;SDS011;28110;47.080;9.476;2023-09-19T08:54:45;12.77;;;2.65;;
42478;SDS011;28110;47.080;9.476;2023-09-19T08:57:13;8.63;;;2.00;;
42478;SDS011;28110;47.080;9.476;2023-09-19T08:59:46;9.05;;;1.90;;
42478;SDS011;28110;47.080;9.476;2023-09-19T09:02:14;2.72;;;1.48;;
42478;SDS011;28110;47.080;9.476;2023-09-19T09:04:40;3.00;;;1.50;;
42478;SDS011;28110;47.080;9.476;2023-09-19T09:07:11;2.95;;;1.40;;
42478;SDS011;28110;47.080;9.476;2023-09-19T09:09:44;1.65;;;1.17;;
42478;SDS011;28110;47.080;9.476;2023-09-19T09:12:13;2.67;;;1.65;;
42478;SDS011;28110;47.080;9.476;2023-09-19T09:14:40;3.03;;;1.77;;
42478;SDS011;28110;47.080;9.476;2023-09-19T09:17:10;5.10;;;1.70;;
42478;SDS011;28110;47.080;9.476;2023-09-19T09:19:37;5.22;;;1.65;;
42478;SDS011;28110;47.080;9.476;2023-09-19T09:22:06;3.55;;;1.75;;
42478;SDS011;28110;47.080;9.476;2023-09-19T09:24:33;6.50;;;2.20;;
42478;SDS011;28110;47.080;9.476;2023-09-19T09:26:59;5.70;;;1.60;;
42478;SDS011;28110;47.080;9.476;2023-09-19T09:29:41;7.88;;;2.15;;
42478;SDS011;28110;47.080;9.476;2023-09-19T09:34:45;3.08;;;1.60;;
42478;SDS011;28110;47.080;9.476;2023-09-19T09:37:13;2.63;;;1.55;;
42478;SDS011;28110;47.080;9.476;2023-09-19T09:39:40;3.83;;;1.60;;
42478;SDS011;28110;47.080;9.476;2023-09-19T09:42:37;6.82;;;1.50;;
42478;SDS011;28110;47.080;9.476;2023-09-19T09:45:13;5.63;;;1.70;;
42478;SDS011;28110;47.080;9.476;2023-09-19T09:47:46;3.17;;;1.52;;
42478;SDS011;28110;47.080;9.476;2023-09-19T09:50:36;5.00;;;1.50;;
42478;SDS011;28110;47.080;9.476;2023-09-19T09:56:00;3.67;;;1.42;;
42478;SDS011;28110;47.080;9.476;2023-09-19T09:58:30;2.42;;;1.50;;
42478;SDS011;28110;47.080;9.476;2023-09-19T10:00:57;6.72;;;1.70;;
42478;SDS011;28110;47.080;9.476;2023-09-19T10:03:31;6.82;;;1.88;;
42478;SDS011;28110;47.080;9.476;2023-09-19T10:05:59;1.87;;;1.40;;
42478;SDS011;28110;47.080;9.476;2023-09-19T10:08:27;4.15;;;1.88;;
42478;SDS011;28110;47.080;9.476;2023-09-19T10:10:56;2.70;;;1.70;;
42478;SDS011;28110;47.080;9.476;2023-09-19T10:13:30;3.05;;;1.52;;
42478;SDS011;28110;47.080;9.476;2023-09-19T10:15:58;2.65;;;1.27;;
42478;SDS011;28110;47.080;9.476;2023-09-19T10:18:29;2.23;;;1.33;;
42478;SDS011;28110;47.080;9.476;2023-09-19T10:21:01;2.60;;;1.40;;
42478;SDS011;28110;47.080;9.476;2023-09-19T10:23:29;2.80;;;1.60;;
42478;SDS011;28110;47.080;9.476;2023-09-19T10:25:59;3.15;;;1.10;;
42478;SDS011;28110;47.080;9.476;2023-09-19T10:28:27;2.90;;;1.20;;
42478;SDS011;28110;47.080;9.476;2023-09-19T10:30:53;2.87;;;1.30;;
42478;SDS011;28110;47.080;9.476;2023-09-19T10:33:22;1.90;;;1.33;;
42478;SDS011;28110;47.080;9.476;2023-09-19T10:35:52;2.53;;;1.20;;
42478;SDS011;28110;47.080;9.476;2023-09-19T10:38:23;2.67;;;1.33;;
42478;SDS011;28110;47.080;9.476;2023-09-19T10:40:51;5.65;;;1.80;;
42478;SDS011;28110;47.080;9.476;2023-09-19T10:43:18;3.23;;;1.60;;
42478;SDS011;28110;47.080;9.476;2023-09-19T10:45:46;1.48;;;1.30;;
42478;SDS011;28110;47.080;9.476;2023-09-19T10:48:17;5.15;;;1.60;;
42478;SDS011;28110;47.080;9.476;2023-09-19T10:51:05;5.47;;;1.30;;
42478;SDS011;28110;47.080;9.476;2023-09-19T10:53:48;2.40;;;1.30;;
42478;SDS011;28110;47.080;9.476;2023-09-19T10:56:32;1.47;;;1.03;;
42478;SDS011;28110;47.080;9.476;2023-09-19T10:59:05;1.55;;;1.30;;
42478;SDS011;28110;47.080;9.476;2023-09-19T11:04:33;2.60;;;1.30;;
42478;SDS011;28110;47.080;9.476;2023-09-19T11:07:07;1.20;;;0.93;;
42478;SDS011;28110;47.080;9.476;2023-09-19T11:09:50;2.33;;;1.20;;
42478;SDS011;28110;47.080;9.476;2023-09-19T11:14:56;5.97;;;1.30;;
42478;SDS011;28110;47.080;9.476;2023-09-19T11:30:46;2.63;;;1.42;;
42478;SDS011;28110;47.080;9.476;2023-09-19T11:33:31;2.20;;;1.17;;
42478;SDS011;28110;47.080;9.476;2023-09-19T11:36:05;1.97;;;1.00;;
42478;SDS011;28110;47.080;9.476;2023-09-19T11:39:14;2.45;;;1.10;;
42478;SDS011;28110;47.080;9.476;2023-09-19T11:43:49;0.87;;;0.80;;
42478;SDS011;28110;47.080;9.476;2023-09-19T11:46:20;2.65;;;1.27;;
42478;SDS011;28110;47.080;9.476;2023-09-19T11:48:49;2.80;;;0.90;;
42478;SDS011;28110;47.080;9.476;2023-09-19T11:51:19;1.35;;;0.65;;
42478;SDS011;28110;47.080;9.476;2023-09-19T11:53:51;2.50;;;0.70;;
42478;SDS011;28110;47.080;9.476;2023-09-19T11:56:22;1.55;;;0.75;;
42478;SDS011;28110;47.080;9.476;2023-09-19T11:58:51;2.65;;;0.90;;
42478;SDS011;28110;47.080;9.476;2023-09-19T12:01:21;2.25;;;0.60;;
42478;SDS011;28110;47.080;9.476;2023-09-19T12:03:53;2.35;;;0.60;;
42478;SDS011;28110;47.080;9.476;2023-09-19T12:06:22;0.87;;;0.60;;
42478;SDS011;28110;47.080;9.476;2023-09-19T12:08:49;1.02;;;0.70;;
42478;SDS011;28110;47.080;9.476;2023-09-19T12:11:16;0.70;;;0.70;;
42478;SDS011;28110;47.080;9.476;2023-09-19T12:13:43;0.95;;;0.65;;
42478;SDS011;28110;47.080;9.476;2023-09-19T12:16:16;1.17;;;0.80;;
42478;SDS011;28110;47.080;9.476;2023-09-19T12:18:46;1.83;;;0.60;;
42478;SDS011;28110;47.080;9.476;2023-09-19T12:21:29;1.90;;;0.90;;
42478;SDS011;28110;47.080;9.476;2023-09-19T12:24:14;2.03;;;1.00;;
42478;SDS011;28110;47.080;9.476;2023-09-19T12:26:45;2.20;;;0.85;;
42478;SDS011;28110;47.080;9.476;2023-09-19T12:29:18;2.40;;;0.88;;
42478;SDS011;28110;47.080;9.476;2023-09-19T12:31:52;1.33;;;0.80;;
42478;SDS011;28110;47.080;9.476;2023-09-19T12:34:29;1.75;;;0.95;;
42478;SDS011;28110;47.080;9.476;2023-09-19T12:37:05;1.58;;;0.77;;
42478;SDS011;28110;47.080;9.476;2023-09-19T12:39:41;2.45;;;0.50;;
42478;SDS011;28110;47.080;9.476;2023-09-19T12:42:09;1.83;;;0.85;;
42478;SDS011;28110;47.080;9.476;2023-09-19T12:44:36;1.57;;;0.80;;
42478;SDS011;28110;47.080;9.476;2023-09-19T12:47:12;4.50;;;1.00;;
42478;SDS011;28110;47.080;9.476;2023-09-19T12:52:38;3.47;;;0.80;;
42478;SDS011;28110;47.080;9.476;2023-09-19T12:55:10;3.22;;;0.90;;
42478;SDS011;28110;47.080;9.476;2023-09-19T13:00:38;1.45;;;0.90;;
42478;SDS011;28110;47.080;9.476;2023-09-19T13:03:50;1.35;;;0.98;;
42478;SDS011;28110;47.080;9.476;2023-09-19T13:06:02;2.78;;;1.00;;
42478;SDS011;28110;47.080;9.476;2023-09-19T13:11:02;2.30;;;0.90;;
42478;SDS011;28110;47.080;9.476;2023-09-19T13:13:48;2.50;;;1.00;;
42478;SDS011;28110;47.080;9.476;2023-09-19T13:16:52;2.92;;;1.15;;
42478;SDS011;28110;47.080;9.476;2023-09-19T13:22:05;1.75;;;1.10;;
42478;SDS011;28110;47.080;9.476;2023-09-19T13:24:51;1.00;;;0.90;;
42478;SDS011;28110;47.080;9.476;2023-09-19T13:27:16;2.40;;;0.95;;
42478;SDS011;28110;47.080;9.476;2023-09-19T13:29:42;1.67;;;0.80;;
42478;SDS011;28110;47.080;9.476;2023-09-19T13:32:07;0.80;;;0.80;;
42478;SDS011;28110;47.080;9.476;2023-09-19T13:34:36;1.35;;;0.80;;
42478;SDS011;28110;47.080;9.476;2023-09-19T13:37:02;1.52;;;0.80;;
42478;SDS011;28110;47.080;9.476;2023-09-19T13:39:29;3.05;;;1.00;;
42478;SDS011;28110;47.080;9.476;2023-09-19T13:41:55;2.17;;;0.73;;
42478;SDS011;28110;47.080;9.476;2023-09-19T13:44:20;1.10;;;0.80;;
42478;SDS011;28110;47.080;9.476;2023-09-19T13:46:46;0.77;;;0.73;;
42478;SDS011;28110;47.080;9.476;2023-09-19T13:49:11;1.20;;;0.77;;
42478;SDS011;28110;47.080;9.476;2023-09-19T13:51:37;1.48;;;0.70;;
42478;SDS011;28110;47.080;9.476;2023-09-19T13:54:03;0.93;;;0.60;;
42478;SDS011;28110;47.080;9.476;2023-09-19T13:56:28;0.50;;;0.50;;
42478;SDS011;28110;47.080;9.476;2023-09-19T13:58:56;1.33;;;0.73;;
42478;SDS011;28110;47.080;9.476;2023-09-19T14:01:21;1.33;;;0.65;;
42478;SDS011;28110;47.080;9.476;2023-09-19T14:03:47;1.57;;;0.80;;
42478;SDS011;28110;47.080;9.476;2023-09-19T14:06:14;1.05;;;0.50;;
42478;SDS011;28110;47.080;9.476;2023-09-19T14:08:43;3.15;;;0.80;;
42478;SDS011;28110;47.080;9.476;2023-09-19T14:11:12;2.03;;;0.70;;
42478;SDS011;28110;47.080;9.476;2023-09-19T14:13:39;1.63;;;0.80;;
42478;SDS011;28110;47.080;9.476;2023-09-19T14:16:05;2.63;;;0.88;;
42478;SDS011;28110;47.080;9.476;2023-09-19T14:18:33;1.42;;;0.65;;
42478;SDS011;28110;47.080;9.476;2023-09-19T14:21:06;1.55;;;0.60;;
42478;SDS011;28110;47.080;9.476;2023-09-19T14:23:37;1.20;;;0.70;;
42478;SDS011;28110;47.080;9.476;2023-09-19T14:26:03;1.67;;;0.75;;
42478;SDS011;28110;47.080;9.476;2023-09-19T14:28:30;1.65;;;0.65;;
42478;SDS011;28110;47.080;9.476;2023-09-19T14:30:56;1.30;;;0.70;;
42478;SDS011;28110;47.080;9.476;2023-09-19T14:33:21;1.87;;;0.67;;
42478;SDS011;28110;47.080;9.476;2023-09-19T14:35:47;1.00;;;0.60;;
42478;SDS011;28110;47.080;9.476;2023-09-19T14:38:12;1.20;;;0.70;;
42478;SDS011;28110;47.080;9.476;2023-09-19T14:40:39;1.53;;;0.80;;
42478;SDS011;28110;47.080;9.476;2023-09-19T14:43:04;0.60;;;0.50;;
42478;SDS011;28110;47.080;9.476;2023-09-19T14:45:30;1.60;;;0.60;;
42478;SDS011;28110;47.080;9.476;2023-09-19T14:47:56;0.98;;;0.60;;
42478;SDS011;28110;47.080;9.476;2023-09-19T14:50:22;4.18;;;0.60;;
42478;SDS011;28110;47.080;9.476;2023-09-19T14:52:47;1.40;;;0.60;;
42478;SDS011;28110;47.080;9.476;2023-09-19T14:55:15;0.52;;;0.50;;
42478;SDS011;28110;47.080;9.476;2023-09-19T14:57:41;2.30;;;0.60;;
42478;SDS011;28110;47.080;9.476;2023-09-19T15:00:09;1.30;;;0.60;;
42478;SDS011;28110;47.080;9.476;2023-09-19T15:02:37;2.00;;;0.80;;
42478;SDS011;28110;47.080;9.476;2023-09-19T15:05:05;2.83;;;0.60;;
42478;SDS011;28110;47.080;9.476;2023-09-19T15:07:33;1.67;;;0.60;;
42478;SDS011;28110;47.080;9.476;2023-09-19T15:10:01;1.50;;;0.67;;
42478;SDS011;28110;47.080;9.476;2023-09-19T15:12:31;5.43;;;0.98;;
42478;SDS011;28110;47.080;9.476;2023-09-19T15:14:58;3.35;;;0.80;;
42478;SDS011;28110;47.080;9.476;2023-09-19T15:17:23;2.50;;;0.90;;
42478;SDS011;28110;47.080;9.476;2023-09-19T15:19:50;1.42;;;0.75;;
42478;SDS011;28110;47.080;9.476;2023-09-19T15:22:16;0.60;;;0.52;;
42478;SDS011;28110;47.080;9.476;2023-09-19T15:24:41;2.37;;;0.80;;
42478;SDS011;28110;47.080;9.476;2023-09-19T15:27:07;1.67;;;0.93;;
42478;SDS011;28110;47.080;9.476;2023-09-19T15:29:33;2.70;;;0.65;;
42478;SDS011;28110;47.080;9.476;2023-09-19T15:31:58;2.60;;;0.77;;
42478;SDS011;28110;47.080;9.476;2023-09-19T15:34:27;2.50;;;0.80;;
42478;SDS011;28110;47.080;9.476;2023-09-19T15:36:53;1.00;;;0.70;;
42478;SDS011;28110;47.080;9.476;2023-09-19T15:39:19;3.20;;;0.70;;
42478;SDS011;28110;47.080;9.476;2023-09-19T15:41:47;2.65;;;0.77;;
42478;SDS011;28110;47.080;9.476;2023-09-19T15:44:16;1.20;;;0.70;;
42478;SDS011;28110;47.080;9.476;2023-09-19T15:46:45;0.73;;;0.70;;
42478;SDS011;28110;47.080;9.476;2023-09-19T15:49:11;0.97;;;0.70;;
42478;SDS011;28110;47.080;9.476;2023-09-19T15:51:36;1.55;;;0.73;;
42478;SDS011;28110;47.080;9.476;2023-09-19T15:54:20;0.70;;;0.70;;